sensor_id;sensor_type;location;lat;lon;timestamp;P1;durP1;ratioP1;P2;durP2;ratioP2
20627;SDS011;10473;42.734;24.258;2024-02-23T00:01:43;5.10;;;3.88;;
20627;SDS011;10473;42.734;24.258;2024-02-23T00:04:09;8.02;;;4.68;;
20627;SDS011;10473;42.734;24.258;2024-02-23T00:06:35;4.63;;;4.00;;
20627;SDS011;10473;42.734;24.258;2024-02-23T00:09:00;4.10;;;3.70;;
20627;SDS011;10473;42.734;24.258;2024-02-23T00:11:26;6.53;;;3.22;;
20627;SDS011;10473;42.734;24.258;2024-02-23T00:13:53;2.72;;;2.53;;
20627;SDS011;10473;42.734;24.258;2024-02-23T00:16:19;5.40;;;2.85;;
20627;SDS011;10473;42.734;24.258;2024-02-23T00:18:44;4.50;;;3.30;;
20627;SDS011;10473;42.734;24.258;2024-02-23T00:21:10;4.25;;;3.83;;
20627;SDS011;10473;42.734;24.258;2024-02-23T00:23:35;7.07;;;5.25;;
20627;SDS011;10473;42.734;24.258;2024-02-23T00:26:01;10.95;;;6.30;;
20627;SDS011;10473;42.734;24.258;2024-02-23T00:28:27;6.35;;;5.28;;
20627;SDS011;10473;42.734;24.258;2024-02-23T00:30:53;10.38;;;5.43;;
20627;SDS011;10473;42.734;24.258;2024-02-23T00:33:18;6.65;;;4.35;;
20627;SDS011;10473;42.734;24.258;2024-02-23T00:35:44;6.57;;;4.15;;
20627;SDS011;10473;42.734;24.258;2024-02-23T00:38:09;6.13;;;3.42;;
20627;SDS011;10473;42.734;24.258;2024-02-23T00:40:38;4.90;;;3.42;;
20627;SDS011;10473;42.734;24.258;2024-02-23T00:43:04;6.10;;;3.95;;
20627;SDS011;10473;42.734;24.258;2024-02-23T00:45:29;5.90;;;3.65;;
20627;SDS011;10473;42.734;24.258;2024-02-23T00:47:55;6.60;;;4.00;;
20627;SDS011;10473;42.734;24.258;2024-02-23T00:50:22;4.40;;;2.78;;
20627;SDS011;10473;42.734;24.258;2024-02-23T00:52:51;3.35;;;2.97;;
20627;SDS011;10473;42.734;24.258;2024-02-23T00:55:17;11.13;;;5.55;;
20627;SDS011;10473;42.734;24.258;2024-02-23T00:57:43;7.85;;;4.35;;
20627;SDS011;10473;42.734;24.258;2024-02-23T01:00:08;9.23;;;5.53;;
20627;SDS011;10473;42.734;24.258;2024-02-23T01:02:34;10.32;;;4.85;;
20627;SDS011;10473;42.734;24.258;2024-02-23T01:05:03;10.27;;;5.47;;
20627;SDS011;10473;42.734;24.258;2024-02-23T01:07:29;9.20;;;5.93;;
20627;SDS011;10473;42.734;24.258;2024-02-23T01:09:55;11.32;;;5.05;;
20627;SDS011;10473;42.734;24.258;2024-02-23T01:12:20;10.68;;;6.20;;
20627;SDS011;10473;42.734;24.258;2024-02-23T01:14:46;12.13;;;6.13;;
20627;SDS011;10473;42.734;24.258;2024-02-23T01:17:13;11.25;;;6.10;;
20627;SDS011;10473;42.734;24.258;2024-02-23T01:19:40;7.93;;;4.88;;
20627;SDS011;10473;42.734;24.258;2024-02-23T01:22:06;8.95;;;6.40;;
20627;SDS011;10473;42.734;24.258;2024-02-23T01:24:32;4.90;;;3.95;;
20627;SDS011;10473;42.734;24.258;2024-02-23T01:26:57;8.50;;;4.97;;
20627;SDS011;10473;42.734;24.258;2024-02-23T01:29:24;8.80;;;4.00;;
20627;SDS011;10473;42.734;24.258;2024-02-23T01:31:51;7.68;;;4.63;;
20627;SDS011;10473;42.734;24.258;2024-02-23T01:34:20;5.82;;;4.60;;
20627;SDS011;10473;42.734;24.258;2024-02-23T01:36:48;7.45;;;5.47;;
20627;SDS011;10473;42.734;24.258;2024-02-23T01:39:14;13.88;;;5.90;;
20627;SDS011;10473;42.734;24.258;2024-02-23T01:41:39;9.55;;;5.50;;
20627;SDS011;10473;42.734;24.258;2024-02-23T01:44:05;11.50;;;5.47;;
20627;SDS011;10473;42.734;24.258;2024-02-23T01:46:35;13.98;;;5.65;;
20627;SDS011;10473;42.734;24.258;2024-02-23T01:49:03;7.82;;;5.15;;
20627;SDS011;10473;42.734;24.258;2024-02-23T01:51:29;7.35;;;4.88;;
20627;SDS011;10473;42.734;24.258;2024-02-23T01:53:56;12.68;;;6.13;;
20627;SDS011;10473;42.734;24.258;2024-02-23T01:56:22;6.10;;;4.15;;
20627;SDS011;10473;42.734;24.258;2024-02-23T01:58:48;7.97;;;4.75;;
20627;SDS011;10473;42.734;24.258;2024-02-23T02:01:14;10.15;;;5.88;;
20627;SDS011;10473;42.734;24.258;2024-02-23T02:03:40;7.13;;;5.38;;
20627;SDS011;10473;42.734;24.258;2024-02-23T02:06:06;7.40;;;5.05;;
20627;SDS011;10473;42.734;24.258;2024-02-23T02:08:34;7.90;;;5.30;;
20627;SDS011;10473;42.734;24.258;2024-02-23T02:11:00;11.70;;;6.80;;
20627;SDS011;10473;42.734;24.258;2024-02-23T02:13:27;29.65;;;13.10;;
20627;SDS011;10473;42.734;24.258;2024-02-23T02:15:53;32.28;;;13.07;;
20627;SDS011;10473;42.734;24.258;2024-02-23T02:18:19;20.10;;;9.90;;
20627;SDS011;10473;42.734;24.258;2024-02-23T02:20:51;12.65;;;7.10;;
20627;SDS011;10473;42.734;24.258;2024-02-23T02:23:19;11.45;;;5.40;;
20627;SDS011;10473;42.734;24.258;2024-02-23T02:25:45;12.95;;;7.38;;
20627;SDS011;10473;42.734;24.258;2024-02-23T02:28:10;10.30;;;6.30;;
20627;SDS011;10473;42.734;24.258;2024-02-23T02:30:37;10.38;;;6.88;;
20627;SDS011;10473;42.734;24.258;2024-02-23T02:33:03;10.00;;;6.03;;
20627;SDS011;10473;42.734;24.258;2024-02-23T02:35:28;12.63;;;7.03;;
20627;SDS011;10473;42.734;24.258;2024-02-23T02:37:54;9.18;;;5.82;;
20627;SDS011;10473;42.734;24.258;2024-02-23T02:40:20;10.43;;;5.88;;
20627;SDS011;10473;42.734;24.258;2024-02-23T02:42:46;5.72;;;3.92;;
20627;SDS011;10473;42.734;24.258;2024-02-23T02:45:11;8.55;;;5.55;;
20627;SDS011;10473;42.734;24.258;2024-02-23T02:47:37;6.22;;;4.75;;
20627;SDS011;10473;42.734;24.258;2024-02-23T02:50:02;9.88;;;4.57;;
20627;SDS011;10473;42.734;24.258;2024-02-23T02:52:29;7.18;;;4.53;;
20627;SDS011;10473;42.734;24.258;2024-02-23T02:54:55;7.47;;;3.88;;
20627;SDS011;10473;42.734;24.258;2024-02-23T02:57:20;5.45;;;4.35;;
20627;SDS011;10473;42.734;24.258;2024-02-23T02:59:46;4.55;;;3.63;;
20627;SDS011;10473;42.734;24.258;2024-02-23T03:02:12;6.90;;;3.78;;
20627;SDS011;10473;42.734;24.258;2024-02-23T03:04:37;7.10;;;3.90;;
20627;SDS011;10473;42.734;24.258;2024-02-23T03:07:03;5.68;;;3.80;;
20627;SDS011;10473;42.734;24.258;2024-02-23T03:09:28;4.95;;;3.45;;
20627;SDS011;10473;42.734;24.258;2024-02-23T03:11:54;7.22;;;4.60;;
20627;SDS011;10473;42.734;24.258;2024-02-23T03:14:20;4.57;;;3.25;;
20627;SDS011;10473;42.734;24.258;2024-02-23T03:16:47;6.47;;;3.50;;
20627;SDS011;10473;42.734;24.258;2024-02-23T03:19:14;6.60;;;4.38;;
20627;SDS011;10473;42.734;24.258;2024-02-23T03:21:40;9.63;;;4.30;;
20627;SDS011;10473;42.734;24.258;2024-02-23T03:24:06;6.63;;;3.85;;
20627;SDS011;10473;42.734;24.258;2024-02-23T03:26:31;6.32;;;4.00;;
20627;SDS011;10473;42.734;24.258;2024-02-23T03:28:57;3.80;;;2.80;;
20627;SDS011;10473;42.734;24.258;2024-02-23T03:31:22;5.63;;;3.72;;
20627;SDS011;10473;42.734;24.258;2024-02-23T03:33:48;5.75;;;4.03;;
20627;SDS011;10473;42.734;24.258;2024-02-23T03:36:13;5.38;;;4.25;;
20627;SDS011;10473;42.734;24.258;2024-02-23T03:38:39;7.63;;;5.03;;
20627;SDS011;10473;42.734;24.258;2024-02-23T03:41:05;5.97;;;3.60;;
20627;SDS011;10473;42.734;24.258;2024-02-23T03:43:31;8.23;;;4.57;;
20627;SDS011;10473;42.734;24.258;2024-02-23T03:45:57;8.27;;;4.47;;
20627;SDS011;10473;42.734;24.258;2024-02-23T03:48:22;5.32;;;3.83;;
20627;SDS011;10473;42.734;24.258;2024-02-23T03:50:48;7.15;;;4.18;;
20627;SDS011;10473;42.734;24.258;2024-02-23T03:53:13;4.65;;;3.25;;
20627;SDS011;10473;42.734;24.258;2024-02-23T03:55:39;8.02;;;3.58;;
20627;SDS011;10473;42.734;24.258;2024-02-23T03:58:04;15.20;;;5.80;;
20627;SDS011;10473;42.734;24.258;2024-02-23T04:00:31;5.95;;;4.03;;
20627;SDS011;10473;42.734;24.258;2024-02-23T04:02:59;5.80;;;4.20;;
20627;SDS011;10473;42.734;24.258;2024-02-23T04:05:25;6.60;;;4.65;;
20627;SDS011;10473;42.734;24.258;2024-02-23T04:07:50;25.80;;;10.70;;
20627;SDS011;10473;42.734;24.258;2024-02-23T04:10:16;26.30;;;12.57;;
20627;SDS011;10473;42.734;24.258;2024-02-23T04:12:42;21.13;;;10.85;;
20627;SDS011;10473;42.734;24.258;2024-02-23T04:15:09;27.10;;;12.00;;
20627;SDS011;10473;42.734;24.258;2024-02-23T04:17:35;27.00;;;11.57;;
20627;SDS011;10473;42.734;24.258;2024-02-23T04:20:01;20.40;;;9.20;;
20627;SDS011;10473;42.734;24.258;2024-02-23T04:22:31;7.82;;;5.35;;
20627;SDS011;10473;42.734;24.258;2024-02-23T04:24:56;13.45;;;8.40;;
20627;SDS011;10473;42.734;24.258;2024-02-23T04:27:22;12.90;;;9.32;;
20627;SDS011;10473;42.734;24.258;2024-02-23T04:29:47;15.68;;;7.90;;
20627;SDS011;10473;42.734;24.258;2024-02-23T04:32:13;13.30;;;7.45;;
20627;SDS011;10473;42.734;24.258;2024-02-23T04:34:39;15.55;;;6.63;;
20627;SDS011;10473;42.734;24.258;2024-02-23T04:37:05;6.70;;;5.28;;
20627;SDS011;10473;42.734;24.258;2024-02-23T04:39:31;7.82;;;5.28;;
20627;SDS011;10473;42.734;24.258;2024-02-23T04:41:56;8.20;;;5.03;;
20627;SDS011;10473;42.734;24.258;2024-02-23T04:44:22;15.40;;;8.98;;
20627;SDS011;10473;42.734;24.258;2024-02-23T04:46:48;17.02;;;9.55;;
20627;SDS011;10473;42.734;24.258;2024-02-23T04:49:13;17.35;;;8.45;;
20627;SDS011;10473;42.734;24.258;2024-02-23T04:51:39;22.75;;;10.88;;
20627;SDS011;10473;42.734;24.258;2024-02-23T04:54:05;23.35;;;10.52;;
20627;SDS011;10473;42.734;24.258;2024-02-23T04:56:31;18.55;;;9.10;;
20627;SDS011;10473;42.734;24.258;2024-02-23T04:58:56;20.50;;;8.88;;
20627;SDS011;10473;42.734;24.258;2024-02-23T05:01:22;14.82;;;7.97;;
20627;SDS011;10473;42.734;24.258;2024-02-23T05:03:48;14.77;;;6.63;;
20627;SDS011;10473;42.734;24.258;2024-02-23T05:06:13;13.35;;;8.05;;
20627;SDS011;10473;42.734;24.258;2024-02-23T05:08:39;17.67;;;9.13;;
20627;SDS011;10473;42.734;24.258;2024-02-23T05:11:06;13.32;;;8.02;;
20627;SDS011;10473;42.734;24.258;2024-02-23T05:13:31;14.40;;;7.28;;
20627;SDS011;10473;42.734;24.258;2024-02-23T05:15:57;12.00;;;6.60;;
20627;SDS011;10473;42.734;24.258;2024-02-23T05:18:22;14.60;;;7.18;;
20627;SDS011;10473;42.734;24.258;2024-02-23T05:20:48;12.93;;;6.03;;
20627;SDS011;10473;42.734;24.258;2024-02-23T05:23:14;13.82;;;7.50;;
20627;SDS011;10473;42.734;24.258;2024-02-23T05:25:41;11.35;;;6.90;;
20627;SDS011;10473;42.734;24.258;2024-02-23T05:28:07;12.25;;;6.53;;
20627;SDS011;10473;42.734;24.258;2024-02-23T05:30:32;13.70;;;7.20;;
20627;SDS011;10473;42.734;24.258;2024-02-23T05:32:58;10.30;;;6.65;;
20627;SDS011;10473;42.734;24.258;2024-02-23T05:35:24;8.25;;;6.18;;
20627;SDS011;10473;42.734;24.258;2024-02-23T05:37:51;6.00;;;4.07;;
20627;SDS011;10473;42.734;24.258;2024-02-23T05:40:20;5.88;;;4.18;;
20627;SDS011;10473;42.734;24.258;2024-02-23T05:42:49;5.95;;;4.22;;
20627;SDS011;10473;42.734;24.258;2024-02-23T05:45:18;8.73;;;5.18;;
20627;SDS011;10473;42.734;24.258;2024-02-23T05:47:44;10.98;;;4.88;;
20627;SDS011;10473;42.734;24.258;2024-02-23T05:50:09;26.60;;;12.27;;
20627;SDS011;10473;42.734;24.258;2024-02-23T05:52:36;17.67;;;9.05;;
20627;SDS011;10473;42.734;24.258;2024-02-23T05:55:04;21.02;;;11.05;;
20627;SDS011;10473;42.734;24.258;2024-02-23T05:57:30;30.25;;;12.75;;
20627;SDS011;10473;42.734;24.258;2024-02-23T05:59:56;37.72;;;14.27;;
20627;SDS011;10473;42.734;24.258;2024-02-23T06:02:25;25.20;;;10.73;;
20627;SDS011;10473;42.734;24.258;2024-02-23T06:04:50;71.38;;;21.63;;
20627;SDS011;10473;42.734;24.258;2024-02-23T06:07:16;31.90;;;12.70;;
20627;SDS011;10473;42.734;24.258;2024-02-23T06:09:42;22.95;;;11.55;;
20627;SDS011;10473;42.734;24.258;2024-02-23T06:12:11;30.58;;;14.15;;
20627;SDS011;10473;42.734;24.258;2024-02-23T06:14:36;33.28;;;14.85;;
20627;SDS011;10473;42.734;24.258;2024-02-23T06:17:02;19.85;;;11.15;;
20627;SDS011;10473;42.734;24.258;2024-02-23T06:19:28;15.52;;;9.40;;
20627;SDS011;10473;42.734;24.258;2024-02-23T06:21:54;35.20;;;13.13;;
20627;SDS011;10473;42.734;24.258;2024-02-23T06:24:19;35.92;;;12.80;;
20627;SDS011;10473;42.734;24.258;2024-02-23T06:26:45;21.55;;;9.15;;
20627;SDS011;10473;42.734;24.258;2024-02-23T06:29:11;22.27;;;9.13;;
20627;SDS011;10473;42.734;24.258;2024-02-23T06:31:39;14.73;;;7.75;;
20627;SDS011;10473;42.734;24.258;2024-02-23T06:34:04;12.30;;;8.00;;
20627;SDS011;10473;42.734;24.258;2024-02-23T06:36:31;11.80;;;6.88;;
20627;SDS011;10473;42.734;24.258;2024-02-23T06:38:56;14.27;;;6.75;;
20627;SDS011;10473;42.734;24.258;2024-02-23T06:41:22;27.05;;;10.95;;
20627;SDS011;10473;42.734;24.258;2024-02-23T06:43:50;28.95;;;11.07;;
20627;SDS011;10473;42.734;24.258;2024-02-23T06:46:18;24.17;;;11.73;;
20627;SDS011;10473;42.734;24.258;2024-02-23T06:48:45;17.33;;;8.35;;
20627;SDS011;10473;42.734;24.258;2024-02-23T06:51:11;15.15;;;8.45;;
20627;SDS011;10473;42.734;24.258;2024-02-23T06:53:36;13.32;;;8.75;;
20627;SDS011;10473;42.734;24.258;2024-02-23T06:56:03;27.45;;;12.25;;
20627;SDS011;10473;42.734;24.258;2024-02-23T06:58:28;20.65;;;10.23;;
20627;SDS011;10473;42.734;24.258;2024-02-23T07:00:57;16.95;;;7.82;;
20627;SDS011;10473;42.734;24.258;2024-02-23T07:03:23;15.93;;;8.80;;
20627;SDS011;10473;42.734;24.258;2024-02-23T07:05:51;12.70;;;8.20;;
20627;SDS011;10473;42.734;24.258;2024-02-23T07:08:17;13.38;;;8.05;;
20627;SDS011;10473;42.734;24.258;2024-02-23T07:10:43;10.68;;;6.28;;
20627;SDS011;10473;42.734;24.258;2024-02-23T07:13:10;9.57;;;5.80;;
20627;SDS011;10473;42.734;24.258;2024-02-23T07:15:35;11.77;;;6.97;;
20627;SDS011;10473;42.734;24.258;2024-02-23T07:18:01;13.23;;;8.50;;
20627;SDS011;10473;42.734;24.258;2024-02-23T07:20:27;10.00;;;6.85;;
20627;SDS011;10473;42.734;24.258;2024-02-23T07:22:52;10.27;;;6.18;;
20627;SDS011;10473;42.734;24.258;2024-02-23T07:25:18;7.93;;;5.93;;
20627;SDS011;10473;42.734;24.258;2024-02-23T07:27:47;9.00;;;5.85;;
20627;SDS011;10473;42.734;24.258;2024-02-23T07:30:16;9.35;;;5.70;;
20627;SDS011;10473;42.734;24.258;2024-02-23T07:32:43;10.90;;;6.05;;
20627;SDS011;10473;42.734;24.258;2024-02-23T07:35:09;10.05;;;6.07;;
20627;SDS011;10473;42.734;24.258;2024-02-23T07:37:38;8.23;;;5.97;;
20627;SDS011;10473;42.734;24.258;2024-02-23T07:40:04;9.18;;;6.70;;
20627;SDS011;10473;42.734;24.258;2024-02-23T07:42:31;9.38;;;5.95;;
20627;SDS011;10473;42.734;24.258;2024-02-23T07:44:57;7.47;;;5.43;;
20627;SDS011;10473;42.734;24.258;2024-02-23T07:47:23;7.55;;;5.00;;
20627;SDS011;10473;42.734;24.258;2024-02-23T07:49:49;9.10;;;6.13;;
20627;SDS011;10473;42.734;24.258;2024-02-23T07:52:17;7.07;;;5.55;;
20627;SDS011;10473;42.734;24.258;2024-02-23T07:54:42;7.43;;;5.22;;
20627;SDS011;10473;42.734;24.258;2024-02-23T07:57:08;9.18;;;5.13;;
20627;SDS011;10473;42.734;24.258;2024-02-23T07:59:34;6.38;;;5.07;;
20627;SDS011;10473;42.734;24.258;2024-02-23T08:02:00;9.35;;;7.03;;
20627;SDS011;10473;42.734;24.258;2024-02-23T08:04:25;7.75;;;5.22;;
20627;SDS011;10473;42.734;24.258;2024-02-23T08:06:51;7.60;;;6.25;;
20627;SDS011;10473;42.734;24.258;2024-02-23T08:09:17;8.25;;;5.13;;
20627;SDS011;10473;42.734;24.258;2024-02-23T08:11:42;7.20;;;5.78;;
20627;SDS011;10473;42.734;24.258;2024-02-23T08:14:08;7.28;;;5.03;;
20627;SDS011;10473;42.734;24.258;2024-02-23T08:16:34;6.55;;;5.38;;
20627;SDS011;10473;42.734;24.258;2024-02-23T08:19:01;6.45;;;4.80;;
20627;SDS011;10473;42.734;24.258;2024-02-23T08:21:26;5.75;;;4.65;;
20627;SDS011;10473;42.734;24.258;2024-02-23T08:23:52;7.05;;;3.85;;
20627;SDS011;10473;42.734;24.258;2024-02-23T08:26:18;4.90;;;4.35;;
20627;SDS011;10473;42.734;24.258;2024-02-23T08:28:46;4.50;;;3.58;;
20627;SDS011;10473;42.734;24.258;2024-02-23T08:31:12;6.72;;;4.65;;
20627;SDS011;10473;42.734;24.258;2024-02-23T08:33:37;5.20;;;4.43;;
20627;SDS011;10473;42.734;24.258;2024-02-23T08:36:06;4.35;;;3.25;;
20627;SDS011;10473;42.734;24.258;2024-02-23T08:38:32;4.28;;;3.95;;
20627;SDS011;10473;42.734;24.258;2024-02-23T08:40:58;4.22;;;3.65;;
20627;SDS011;10473;42.734;24.258;2024-02-23T08:43:24;3.85;;;3.40;;
20627;SDS011;10473;42.734;24.258;2024-02-23T08:45:50;5.03;;;3.58;;
20627;SDS011;10473;42.734;24.258;2024-02-23T08:48:15;4.82;;;3.70;;
20627;SDS011;10473;42.734;24.258;2024-02-23T08:50:41;2.65;;;2.45;;
20627;SDS011;10473;42.734;24.258;2024-02-23T08:53:06;4.32;;;3.15;;
20627;SDS011;10473;42.734;24.258;2024-02-23T08:55:32;4.53;;;2.60;;
20627;SDS011;10473;42.734;24.258;2024-02-23T08:57:58;3.67;;;2.83;;
20627;SDS011;10473;42.734;24.258;2024-02-23T09:00:24;3.67;;;2.95;;
20627;SDS011;10473;42.734;24.258;2024-02-23T09:02:49;4.35;;;3.35;;
20627;SDS011;10473;42.734;24.258;2024-02-23T09:05:15;3.10;;;2.90;;
20627;SDS011;10473;42.734;24.258;2024-02-23T09:07:50;2.58;;;2.38;;
20627;SDS011;10473;42.734;24.258;2024-02-23T09:12:55;4.90;;;3.28;;
20627;SDS011;10473;42.734;24.258;2024-02-23T09:15:25;3.67;;;2.80;;
20627;SDS011;10473;42.734;24.258;2024-02-23T09:17:51;5.72;;;2.28;;
20627;SDS011;10473;42.734;24.258;2024-02-23T09:20:20;2.60;;;2.22;;
20627;SDS011;10473;42.734;24.258;2024-02-23T09:22:45;3.30;;;2.92;;
20627;SDS011;10473;42.734;24.258;2024-02-23T09:25:11;4.68;;;3.30;;
20627;SDS011;10473;42.734;24.258;2024-02-23T09:27:36;4.15;;;2.58;;
20627;SDS011;10473;42.734;24.258;2024-02-23T09:30:08;3.20;;;2.53;;
20627;SDS011;10473;42.734;24.258;2024-02-23T09:32:35;2.13;;;1.60;;
20627;SDS011;10473;42.734;24.258;2024-02-23T09:35:01;2.03;;;1.83;;
20627;SDS011;10473;42.734;24.258;2024-02-23T09:37:28;4.63;;;2.90;;
20627;SDS011;10473;42.734;24.258;2024-02-23T09:39:54;4.20;;;2.47;;
20627;SDS011;10473;42.734;24.258;2024-02-23T09:42:19;3.95;;;2.22;;
20627;SDS011;10473;42.734;24.258;2024-02-23T09:44:57;3.83;;;2.53;;
20627;SDS011;10473;42.734;24.258;2024-02-23T09:47:29;2.60;;;2.17;;
20627;SDS011;10473;42.734;24.258;2024-02-23T09:49:55;3.75;;;3.25;;
20627;SDS011;10473;42.734;24.258;2024-02-23T09:52:21;3.25;;;2.85;;
20627;SDS011;10473;42.734;24.258;2024-02-23T09:54:47;3.53;;;3.08;;
20627;SDS011;10473;42.734;24.258;2024-02-23T09:57:14;3.13;;;2.78;;
20627;SDS011;10473;42.734;24.258;2024-02-23T09:59:40;2.97;;;2.72;;
20627;SDS011;10473;42.734;24.258;2024-02-23T10:02:07;5.07;;;2.70;;
20627;SDS011;10473;42.734;24.258;2024-02-23T10:04:37;2.35;;;2.15;;
20627;SDS011;10473;42.734;24.258;2024-02-23T10:07:05;2.45;;;1.98;;
20627;SDS011;10473;42.734;24.258;2024-02-23T10:09:31;5.00;;;3.28;;
20627;SDS011;10473;42.734;24.258;2024-02-23T10:11:57;2.70;;;2.50;;
20627;SDS011;10473;42.734;24.258;2024-02-23T10:14:22;4.00;;;2.42;;
20627;SDS011;10473;42.734;24.258;2024-02-23T10:16:51;3.65;;;2.50;;
20627;SDS011;10473;42.734;24.258;2024-02-23T10:19:22;2.50;;;2.03;;
20627;SDS011;10473;42.734;24.258;2024-02-23T10:21:47;1.85;;;1.75;;
20627;SDS011;10473;42.734;24.258;2024-02-23T10:24:17;3.17;;;2.45;;
20627;SDS011;10473;42.734;24.258;2024-02-23T10:26:42;2.08;;;1.88;;
20627;SDS011;10473;42.734;24.258;2024-02-23T10:29:09;2.45;;;2.22;;
20627;SDS011;10473;42.734;24.258;2024-02-23T10:31:35;2.15;;;1.95;;
20627;SDS011;10473;42.734;24.258;2024-02-23T10:34:08;3.17;;;2.85;;
20627;SDS011;10473;42.734;24.258;2024-02-23T10:36:42;2.63;;;2.42;;
20627;SDS011;10473;42.734;24.258;2024-02-23T10:39:08;3.88;;;2.55;;
20627;SDS011;10473;42.734;24.258;2024-02-23T10:41:35;3.15;;;2.38;;
20627;SDS011;10473;42.734;24.258;2024-02-23T10:44:07;3.70;;;2.40;;
20627;SDS011;10473;42.734;24.258;2024-02-23T10:46:34;3.75;;;2.33;;
20627;SDS011;10473;42.734;24.258;2024-02-23T10:49:00;3.40;;;2.78;;
20627;SDS011;10473;42.734;24.258;2024-02-23T10:51:26;1.95;;;1.73;;
20627;SDS011;10473;42.734;24.258;2024-02-23T10:53:52;4.55;;;1.88;;
20627;SDS011;10473;42.734;24.258;2024-02-23T10:56:18;2.25;;;1.95;;
20627;SDS011;10473;42.734;24.258;2024-02-23T10:58:44;16.75;;;6.50;;
20627;SDS011;10473;42.734;24.258;2024-02-23T11:01:10;9.68;;;6.30;;
20627;SDS011;10473;42.734;24.258;2024-02-23T11:03:38;2.50;;;2.22;;
20627;SDS011;10473;42.734;24.258;2024-02-23T11:06:08;3.78;;;2.58;;
20627;SDS011;10473;42.734;24.258;2024-02-23T11:08:33;2.85;;;2.65;;
20627;SDS011;10473;42.734;24.258;2024-02-23T11:11:07;6.22;;;4.43;;
20627;SDS011;10473;42.734;24.258;2024-02-23T11:13:35;4.07;;;3.00;;
20627;SDS011;10473;42.734;24.258;2024-02-23T11:19:09;6.03;;;4.35;;
20627;SDS011;10473;42.734;24.258;2024-02-23T11:21:36;6.68;;;3.97;;
20627;SDS011;10473;42.734;24.258;2024-02-23T11:24:03;2.83;;;2.63;;
20627;SDS011;10473;42.734;24.258;2024-02-23T11:26:31;2.38;;;2.17;;
20627;SDS011;10473;42.734;24.258;2024-02-23T11:28:58;6.50;;;2.55;;
20627;SDS011;10473;42.734;24.258;2024-02-23T11:31:28;2.67;;;2.47;;
20627;SDS011;10473;42.734;24.258;2024-02-23T11:33:55;2.97;;;2.63;;
20627;SDS011;10473;42.734;24.258;2024-02-23T11:36:28;2.17;;;1.70;;
20627;SDS011;10473;42.734;24.258;2024-02-23T11:38:56;1.85;;;1.75;;
20627;SDS011;10473;42.734;24.258;2024-02-23T11:41:23;2.58;;;2.38;;
20627;SDS011;10473;42.734;24.258;2024-02-23T11:43:53;2.60;;;2.20;;
20627;SDS011;10473;42.734;24.258;2024-02-23T11:46:20;2.38;;;2.17;;
20627;SDS011;10473;42.734;24.258;2024-02-23T11:48:46;2.78;;;2.58;;
20627;SDS011;10473;42.734;24.258;2024-02-23T11:51:15;2.35;;;2.15;;
20627;SDS011;10473;42.734;24.258;2024-02-23T11:53:41;7.20;;;5.68;;
20627;SDS011;10473;42.734;24.258;2024-02-23T11:56:07;4.72;;;3.47;;
20627;SDS011;10473;42.734;24.258;2024-02-23T11:58:33;2.22;;;2.03;;
20627;SDS011;10473;42.734;24.258;2024-02-23T12:01:00;2.08;;;1.83;;
20627;SDS011;10473;42.734;24.258;2024-02-23T12:03:28;2.63;;;2.08;;
20627;SDS011;10473;42.734;24.258;2024-02-23T12:05:58;2.92;;;2.13;;
20627;SDS011;10473;42.734;24.258;2024-02-23T12:08:29;3.78;;;2.38;;
20627;SDS011;10473;42.734;24.258;2024-02-23T12:10:57;2.13;;;1.95;;
20627;SDS011;10473;42.734;24.258;2024-02-23T12:13:25;2.03;;;1.88;;
20627;SDS011;10473;42.734;24.258;2024-02-23T12:15:52;2.10;;;1.90;;
20627;SDS011;10473;42.734;24.258;2024-02-23T12:18:21;4.10;;;2.33;;
20627;SDS011;10473;42.734;24.258;2024-02-23T12:20:51;2.20;;;2.00;;
20627;SDS011;10473;42.734;24.258;2024-02-23T12:23:17;3.05;;;2.85;;
20627;SDS011;10473;42.734;24.258;2024-02-23T12:25:53;2.03;;;1.55;;
20627;SDS011;10473;42.734;24.258;2024-02-23T12:28:22;1.90;;;1.67;;
20627;SDS011;10473;42.734;24.258;2024-02-23T12:31:04;4.25;;;2.15;;
20627;SDS011;10473;42.734;24.258;2024-02-23T12:33:31;5.38;;;3.25;;
20627;SDS011;10473;42.734;24.258;2024-02-23T12:36:01;2.65;;;1.80;;
20627;SDS011;10473;42.734;24.258;2024-02-23T12:38:28;4.15;;;1.90;;
20627;SDS011;10473;42.734;24.258;2024-02-23T12:40:54;4.15;;;2.38;;
20627;SDS011;10473;42.734;24.258;2024-02-23T12:43:20;1.95;;;1.75;;
20627;SDS011;10473;42.734;24.258;2024-02-23T12:45:47;2.05;;;1.80;;
20627;SDS011;10473;42.734;24.258;2024-02-23T12:48:16;5.68;;;2.65;;
20627;SDS011;10473;42.734;24.258;2024-02-23T12:50:42;4.00;;;1.85;;
20627;SDS011;10473;42.734;24.258;2024-02-23T12:53:11;33.25;;;14.10;;
20627;SDS011;10473;42.734;24.258;2024-02-23T12:56:05;2.45;;;1.83;;
20627;SDS011;10473;42.734;24.258;2024-02-23T12:58:33;2.00;;;1.58;;
20627;SDS011;10473;42.734;24.258;2024-02-23T13:00:59;3.95;;;2.45;;
20627;SDS011;10473;42.734;24.258;2024-02-23T13:03:25;1.90;;;1.35;;
20627;SDS011;10473;42.734;24.258;2024-02-23T13:05:52;8.98;;;5.55;;
20627;SDS011;10473;42.734;24.258;2024-02-23T13:08:21;2.00;;;1.58;;
20627;SDS011;10473;42.734;24.258;2024-02-23T13:10:47;6.70;;;4.45;;
20627;SDS011;10473;42.734;24.258;2024-02-23T13:13:13;4.88;;;3.47;;
20627;SDS011;10473;42.734;24.258;2024-02-23T13:15:42;3.13;;;2.50;;
20627;SDS011;10473;42.734;24.258;2024-02-23T13:18:08;4.28;;;3.47;;
20627;SDS011;10473;42.734;24.258;2024-02-23T13:20:34;2.20;;;1.75;;
20627;SDS011;10473;42.734;24.258;2024-02-23T13:23:00;1.70;;;1.60;;
20627;SDS011;10473;42.734;24.258;2024-02-23T13:25:27;2.17;;;1.65;;
20627;SDS011;10473;42.734;24.258;2024-02-23T13:27:52;3.03;;;1.70;;
20627;SDS011;10473;42.734;24.258;2024-02-23T13:30:18;2.45;;;2.28;;
20627;SDS011;10473;42.734;24.258;2024-02-23T13:32:44;2.55;;;2.25;;
20627;SDS011;10473;42.734;24.258;2024-02-23T13:35:09;2.63;;;1.48;;
20627;SDS011;10473;42.734;24.258;2024-02-23T13:37:35;1.83;;;1.63;;
20627;SDS011;10473;42.734;24.258;2024-02-23T13:40:01;2.35;;;2.15;;
20627;SDS011;10473;42.734;24.258;2024-02-23T13:42:26;8.38;;;4.88;;
20627;SDS011;10473;42.734;24.258;2024-02-23T13:44:55;3.38;;;2.63;;
20627;SDS011;10473;42.734;24.258;2024-02-23T13:47:21;3.67;;;2.60;;
20627;SDS011;10473;42.734;24.258;2024-02-23T13:49:49;1.70;;;1.55;;
20627;SDS011;10473;42.734;24.258;2024-02-23T13:52:15;2.30;;;1.83;;
20627;SDS011;10473;42.734;24.258;2024-02-23T13:54:41;2.47;;;1.50;;
20627;SDS011;10473;42.734;24.258;2024-02-23T13:57:08;5.95;;;5.28;;
20627;SDS011;10473;42.734;24.258;2024-02-23T13:59:33;2.20;;;1.92;;
20627;SDS011;10473;42.734;24.258;2024-02-23T14:01:59;2.72;;;1.80;;
20627;SDS011;10473;42.734;24.258;2024-02-23T14:04:25;2.92;;;2.58;;
20627;SDS011;10473;42.734;24.258;2024-02-23T14:06:51;2.22;;;2.03;;
20627;SDS011;10473;42.734;24.258;2024-02-23T14:09:16;3.85;;;1.83;;
20627;SDS011;10473;42.734;24.258;2024-02-23T14:11:42;2.28;;;1.58;;
20627;SDS011;10473;42.734;24.258;2024-02-23T14:14:08;2.42;;;1.77;;
20627;SDS011;10473;42.734;24.258;2024-02-23T14:16:33;4.22;;;1.83;;
20627;SDS011;10473;42.734;24.258;2024-02-23T14:19:00;3.10;;;2.00;;
20627;SDS011;10473;42.734;24.258;2024-02-23T14:21:25;4.20;;;2.42;;
20627;SDS011;10473;42.734;24.258;2024-02-23T14:23:51;3.38;;;2.42;;
20627;SDS011;10473;42.734;24.258;2024-02-23T14:26:17;2.95;;;2.58;;
20627;SDS011;10473;42.734;24.258;2024-02-23T14:28:42;2.72;;;2.53;;
20627;SDS011;10473;42.734;24.258;2024-02-23T14:31:08;3.00;;;2.53;;
20627;SDS011;10473;42.734;24.258;2024-02-23T14:33:34;3.10;;;2.80;;